createdAt,value
2023-01-25T00:02:03.201Z,49.63
2023-01-25T00:04:32.039Z,51.75
2023-01-25T00:07:01.135Z,48.90
2023-01-25T00:09:30.235Z,45.30
2023-01-25T00:11:59.291Z,38.42
2023-01-25T00:14:29.799Z,38.50
2023-01-25T00:16:58.745Z,36.78
2023-01-25T00:19:27.918Z,37.45
2023-01-25T00:21:57.004Z,34.75
2023-01-25T00:24:26.404Z,35.08
2023-01-25T00:26:55.617Z,38.22
2023-01-25T00:29:24.659Z,38.15
2023-01-25T00:32:04.944Z,28.27
2023-01-25T00:34:44.576Z,28.50
2023-01-25T00:37:30.123Z,27.60
2023-01-25T00:39:59.889Z,31.38
2023-01-25T00:42:29.577Z,26.75
2023-01-25T00:44:58.582Z,23.52
2023-01-25T00:47:29.090Z,28.13
2023-01-25T00:49:57.796Z,26.92
2023-01-25T00:52:28.738Z,33.97
2023-01-25T00:54:58.387Z,26.83
2023-01-25T00:57:27.453Z,30.70
2023-01-25T00:59:56.745Z,21.73
2023-01-25T01:02:25.825Z,27.80
2023-01-25T01:04:56.929Z,19.27
2023-01-25T01:07:26.067Z,23.83
2023-01-25T01:09:55.475Z,21.30
2023-01-25T01:12:27.035Z,21.45
2023-01-25T01:14:56.743Z,22.98
2023-01-25T01:17:25.967Z,22.83
2023-01-25T01:19:54.758Z,17.15
2023-01-25T01:22:27.626Z,23.45
2023-01-25T01:24:56.781Z,21.20
2023-01-25T01:27:25.731Z,20.40
2023-01-25T01:29:54.763Z,21.23
2023-01-25T01:32:23.988Z,21.65
2023-01-25T01:34:53.687Z,18.92
2023-01-25T01:37:22.740Z,17.15
2023-01-25T01:39:53.627Z,15.50
2023-01-25T01:42:22.824Z,16.40
2023-01-25T01:44:54.028Z,12.98
2023-01-25T01:47:27.977Z,15.77
2023-01-25T01:50:03.167Z,14.98
2023-01-25T01:52:36.836Z,15.85
2023-01-25T01:55:09.997Z,17.90
2023-01-25T01:57:43.062Z,14.13
2023-01-25T02:00:16.271Z,12.25
2023-01-25T02:02:47.160Z,15.95
2023-01-25T02:05:20.836Z,15.68
2023-01-25T02:07:51.372Z,15.05
2023-01-25T02:10:24.045Z,19.48
2023-01-25T02:12:54.640Z,15.98
2023-01-25T02:15:23.814Z,11.27
2023-01-25T02:17:53.483Z,9.63
2023-01-25T02:20:29.838Z,12.30
2023-01-25T02:23:03.589Z,14.13
2023-01-25T02:25:34.343Z,11.82
2023-01-25T02:28:07.898Z,15.73
2023-01-25T02:30:37.199Z,16.80
2023-01-25T02:33:06.306Z,12.63
2023-01-25T02:35:40.394Z,18.55
2023-01-25T02:38:11.550Z,10.30
2023-01-25T02:40:46.462Z,11.55
2023-01-25T02:43:16.689Z,11.13
2023-01-25T02:45:49.155Z,11.82
2023-01-25T02:48:18.239Z,10.25
2023-01-25T02:50:47.393Z,10.48
2023-01-25T02:53:16.399Z,8.35
2023-01-25T02:55:46.628Z,9.80
2023-01-25T02:58:15.720Z,8.68
2023-01-25T03:00:44.824Z,11.43
2023-01-25T03:03:13.993Z,10.27
2023-01-25T03:05:43.386Z,9.75
2023-01-25T03:08:13.130Z,10.52
2023-01-25T03:10:42.595Z,8.27
2023-01-25T03:13:13.188Z,9.30
2023-01-25T03:15:42.271Z,11.15
2023-01-25T03:18:11.623Z,9.77
2023-01-25T03:20:40.670Z,9.70
2023-01-25T03:23:10.182Z,9.48
2023-01-25T03:25:39.994Z,11.25
2023-01-25T03:28:15.954Z,9.00
2023-01-25T03:30:45.231Z,7.65
2023-01-25T03:33:14.330Z,8.77
2023-01-25T03:35:43.404Z,13.27
2023-01-25T03:38:12.641Z,9.18
2023-01-25T03:40:41.428Z,10.38
2023-01-25T03:43:10.629Z,10.88
2023-01-25T03:45:41.355Z,10.40
2023-01-25T03:48:10.552Z,10.57
2023-01-25T03:50:40.846Z,11.13
2023-01-25T03:55:50.372Z,11.77
2023-01-25T03:58:20.001Z,12.95
2023-01-25T04:00:50.758Z,13.63
2023-01-25T04:03:21.711Z,13.90
2023-01-25T04:05:51.279Z,16.42
2023-01-25T04:08:20.773Z,15.45
2023-01-25T04:10:53.801Z,11.85
2023-01-25T04:13:23.861Z,15.90
2023-01-25T04:15:55.448Z,15.85
2023-01-25T04:18:44.505Z,17.88
2023-01-25T04:21:13.681Z,19.77
2023-01-25T04:23:42.900Z,16.20
2023-01-25T04:26:12.730Z,17.63
2023-01-25T04:28:42.981Z,17.55
2023-01-25T04:31:13.466Z,16.50
2023-01-25T04:33:43.306Z,19.42
2023-01-25T04:38:43.214Z,21.77
2023-01-25T04:41:13.161Z,18.83
2023-01-25T04:43:43.564Z,20.35
2023-01-25T04:46:14.729Z,19.80
2023-01-25T04:48:44.004Z,22.23
2023-01-25T04:51:14.469Z,20.45
2023-01-25T04:53:44.017Z,21.50
2023-01-25T04:56:13.353Z,26.33
2023-01-25T04:58:48.611Z,23.88
2023-01-25T05:01:19.419Z,26.83
2023-01-25T05:03:54.780Z,29.15
2023-01-25T05:06:37.136Z,27.25
2023-01-25T05:09:06.366Z,34.53
2023-01-25T05:11:37.303Z,31.55
2023-01-25T05:14:13.376Z,28.50
2023-01-25T05:16:45.722Z,29.92
2023-01-25T05:19:16.214Z,33.03
2023-01-25T05:21:59.649Z,30.13
2023-01-25T05:24:37.167Z,32.92
2023-01-25T05:27:09.147Z,36.80
2023-01-25T05:29:58.875Z,37.80
2023-01-25T05:32:50.425Z,35.97
2023-01-25T05:35:20.082Z,35.08
2023-01-25T05:37:51.251Z,32.47
2023-01-25T05:40:25.230Z,35.50
2023-01-25T05:42:57.770Z,35.85
2023-01-25T05:45:30.171Z,37.55
2023-01-25T05:48:01.627Z,32.25
2023-01-25T05:50:31.926Z,39.85
2023-01-25T05:53:13.030Z,37.03
2023-01-25T05:55:41.912Z,40.33
2023-01-25T05:58:17.847Z,38.03
2023-01-25T06:00:47.259Z,42.83
2023-01-25T06:03:28.944Z,37.72
2023-01-25T06:05:58.468Z,46.65
2023-01-25T06:08:27.708Z,43.65
2023-01-25T06:10:56.458Z,49.55
2023-01-25T06:13:25.928Z,41.70
2023-01-25T06:15:56.291Z,44.10
2023-01-25T06:18:53.060Z,45.05
2023-01-25T06:21:48.554Z,47.42
2023-01-25T06:24:17.715Z,33.28
2023-01-25T06:26:47.114Z,50.90
2023-01-25T06:29:16.598Z,31.83
2023-01-25T06:31:45.346Z,46.25
2023-01-25T06:34:17.221Z,43.37
2023-01-25T06:36:46.699Z,48.28
2023-01-25T06:39:16.151Z,45.97
2023-01-25T06:41:45.429Z,46.00
2023-01-25T06:44:14.612Z,52.83
2023-01-25T06:46:43.611Z,52.70
2023-01-25T06:49:12.892Z,35.70
2023-01-25T06:51:44.773Z,48.17
2023-01-25T06:54:13.912Z,44.00
2023-01-25T06:56:43.614Z,41.40
2023-01-25T06:59:12.864Z,42.80
2023-01-25T07:01:41.635Z,42.08
2023-01-25T07:04:12.231Z,43.17
2023-01-25T07:06:42.961Z,46.95
2023-01-25T07:09:13.600Z,47.65
2023-01-25T07:11:42.810Z,46.08
2023-01-25T07:14:11.937Z,50.47
2023-01-25T07:16:41.041Z,41.90
2023-01-25T07:19:14.350Z,47.22
2023-01-25T07:21:44.971Z,47.38
2023-01-25T07:24:16.156Z,45.67
2023-01-25T07:26:46.012Z,47.50
2023-01-25T07:29:16.254Z,51.90
2023-01-25T07:34:14.674Z,50.72
2023-01-25T07:36:47.792Z,45.55
2023-01-25T07:39:17.313Z,45.35
2023-01-25T07:41:46.648Z,49.47
2023-01-25T07:44:17.695Z,50.17
2023-01-25T07:46:49.095Z,45.70
2023-01-25T07:49:18.537Z,53.03
2023-01-25T07:51:49.053Z,37.53
2023-01-25T07:54:18.187Z,45.13
2023-01-25T07:56:47.299Z,45.15
2023-01-25T07:59:16.451Z,50.72
2023-01-25T08:01:45.228Z,50.17
2023-01-25T08:04:14.512Z,39.90
2023-01-25T08:09:20.234Z,47.65
2023-01-25T08:11:50.347Z,49.40
2023-01-25T08:14:20.559Z,51.65
2023-01-25T08:16:49.374Z,48.17
2023-01-25T08:19:22.581Z,51.15
2023-01-25T08:21:51.768Z,52.70
2023-01-25T08:24:24.528Z,52.78
2023-01-25T08:26:54.633Z,46.90
2023-01-25T08:29:23.983Z,33.80
2023-01-25T08:31:52.755Z,46.80
2023-01-25T08:34:22.071Z,46.45
2023-01-25T08:39:21.832Z,53.67
2023-01-25T08:41:51.064Z,52.75
2023-01-25T08:44:22.570Z,56.00
2023-01-25T08:46:51.615Z,48.30
2023-01-25T08:49:20.867Z,59.40
2023-01-25T08:51:50.460Z,56.40
2023-01-25T08:54:19.576Z,43.53
2023-01-25T08:56:50.824Z,50.25
2023-01-25T08:59:19.903Z,58.05
2023-01-25T09:01:48.668Z,50.83
2023-01-25T09:04:20.089Z,52.42
2023-01-25T09:06:49.307Z,53.10
2023-01-25T09:09:18.936Z,53.13
2023-01-25T09:11:49.651Z,54.22
2023-01-25T09:14:18.848Z,48.83
2023-01-25T09:16:48.314Z,50.15
2023-01-25T09:19:18.620Z,54.25
2023-01-25T09:21:48.439Z,59.08
2023-01-25T09:24:18.984Z,53.63
2023-01-25T09:26:59.104Z,58.47
2023-01-25T09:29:30.013Z,68.65
2023-01-25T09:31:59.185Z,61.00
2023-01-25T09:34:35.619Z,56.97
2023-01-25T09:37:04.783Z,57.00
2023-01-25T09:39:33.860Z,62.05
2023-01-25T09:42:38.389Z,58.20
2023-01-25T09:45:14.819Z,57.95
2023-01-25T09:47:48.205Z,63.53
2023-01-25T09:51:05.628Z,62.97
2023-01-25T09:54:16.913Z,60.25
2023-01-25T09:57:33.218Z,60.67
2023-01-25T10:00:44.987Z,64.55
2023-01-25T10:03:56.852Z,62.90
2023-01-25T10:07:14.199Z,57.13
2023-01-25T10:10:28.739Z,62.45
2023-01-25T10:13:39.668Z,61.15
2023-01-25T10:17:08.719Z,58.63
2023-01-25T10:20:25.334Z,57.03
2023-01-25T10:23:47.655Z,64.47
2023-01-25T10:26:58.617Z,58.00
2023-01-25T10:30:22.750Z,57.22
2023-01-25T10:33:36.987Z,56.15
2023-01-25T10:36:50.049Z,63.72
2023-01-25T10:40:02.927Z,63.03
2023-01-25T10:43:17.938Z,52.83
2023-01-25T10:46:29.739Z,57.13
2023-01-25T10:49:43.714Z,60.17
2023-01-25T10:52:59.680Z,63.03
2023-01-25T10:56:22.636Z,62.42
2023-01-25T10:59:32.694Z,72.40
2023-01-25T11:02:46.663Z,63.47
2023-01-25T11:05:56.988Z,59.63
2023-01-25T11:12:40.730Z,58.90
2023-01-25T11:15:52.189Z,57.20
2023-01-25T11:19:04.270Z,57.88
2023-01-25T11:22:24.215Z,59.60
2023-01-25T11:25:34.571Z,63.55
2023-01-25T11:31:57.945Z,60.45
2023-01-25T11:35:14.555Z,65.97
2023-01-25T11:38:25.136Z,68.10
2023-01-25T11:41:42.013Z,60.13
2023-01-25T11:45:10.592Z,63.53
2023-01-25T11:48:32.536Z,66.43
2023-01-25T11:51:51.819Z,66.80
2023-01-25T11:55:12.778Z,63.47
2023-01-25T11:58:37.588Z,61.78
2023-01-25T12:02:02.143Z,67.30
2023-01-25T12:05:22.661Z,69.80
2023-01-25T12:08:50.612Z,64.20
2023-01-25T12:12:11.483Z,58.63
2023-01-25T12:15:47.942Z,67.40
2023-01-25T12:19:24.381Z,74.05
2023-01-25T12:22:45.308Z,78.95
2023-01-25T12:26:05.842Z,63.53
2023-01-25T12:29:24.499Z,73.63
2023-01-25T12:32:39.083Z,75.43
2023-01-25T12:35:52.198Z,73.32
2023-01-25T12:39:05.629Z,76.15
2023-01-25T12:42:18.883Z,69.72
2023-01-25T12:45:30.658Z,81.28
2023-01-25T12:48:42.756Z,72.05
2023-01-25T12:51:53.445Z,66.68
2023-01-25T12:55:03.897Z,67.10
2023-01-25T12:58:23.814Z,67.68
2023-01-25T13:01:44.858Z,66.40
2023-01-25T13:05:01.479Z,71.15
2023-01-25T13:07:36.737Z,63.28
2023-01-25T13:10:14.697Z,69.97
2023-01-25T13:12:53.986Z,76.00
2023-01-25T13:15:44.566Z,79.40
2023-01-25T13:18:39.172Z,71.80
2023-01-25T13:21:13.938Z,70.15
2023-01-25T13:23:48.087Z,69.40
2023-01-25T13:26:54.295Z,65.25
2023-01-25T13:29:47.302Z,72.97
2023-01-25T13:32:54.142Z,73.13
2023-01-25T13:35:40.341Z,69.22
2023-01-25T13:38:44.896Z,65.55
2023-01-25T13:41:17.219Z,62.83
2023-01-25T13:43:49.900Z,57.15
2023-01-25T13:46:21.423Z,52.70
2023-01-25T13:49:02.935Z,58.30
2023-01-25T13:51:37.320Z,57.55
2023-01-25T13:54:06.785Z,57.35
2023-01-25T13:56:36.691Z,60.63
2023-01-25T13:59:05.891Z,64.65
2023-01-25T14:01:36.232Z,58.53
2023-01-25T14:04:07.401Z,55.35
2023-01-25T14:06:39.624Z,60.80
2023-01-25T14:09:16.880Z,58.92
2023-01-25T14:11:49.768Z,57.03
2023-01-25T14:14:22.392Z,48.40
2023-01-25T14:17:03.137Z,54.08
2023-01-25T14:19:34.839Z,50.47
2023-01-25T14:22:23.014Z,57.33
2023-01-25T14:25:19.255Z,50.60
2023-01-25T14:27:50.316Z,53.15
2023-01-25T14:30:22.208Z,60.85
2023-01-25T14:32:52.742Z,55.83
2023-01-25T14:35:54.577Z,56.08
2023-01-25T14:38:41.730Z,55.95
2023-01-25T14:41:15.261Z,50.22
2023-01-25T14:43:47.642Z,61.20
2023-01-25T14:46:20.875Z,54.30
2023-01-25T14:48:50.332Z,60.33
2023-01-25T14:51:28.682Z,54.70
2023-01-25T14:54:00.740Z,52.20
2023-01-25T14:56:34.544Z,52.30
2023-01-25T14:59:04.964Z,59.92
2023-01-25T15:04:04.193Z,56.63
2023-01-25T15:06:34.662Z,58.15
2023-01-25T15:09:03.819Z,56.55
2023-01-25T15:11:38.888Z,62.50
2023-01-25T15:14:18.294Z,58.00
2023-01-25T15:16:47.062Z,58.15
2023-01-25T15:19:27.798Z,58.42
2023-01-25T15:22:00.073Z,60.53
2023-01-25T15:24:29.422Z,76.38
2023-01-25T15:26:58.464Z,59.80
2023-01-25T15:29:27.863Z,66.22
2023-01-25T15:31:57.254Z,64.05
2023-01-25T15:34:30.451Z,62.15
2023-01-25T15:37:00.898Z,62.08
2023-01-25T15:39:30.150Z,63.47
2023-01-25T15:41:59.414Z,63.80
2023-01-25T15:44:28.415Z,71.18
2023-01-25T15:46:57.374Z,63.38
2023-01-25T15:49:28.272Z,67.88
2023-01-25T15:51:58.122Z,68.68
2023-01-25T15:54:28.884Z,72.68
2023-01-25T15:56:59.285Z,71.43
2023-01-25T15:59:28.398Z,73.20
2023-01-25T16:01:57.208Z,77.10
2023-01-25T16:04:26.488Z,73.20
2023-01-25T16:06:58.843Z,70.70
2023-01-25T16:09:33.338Z,70.93
2023-01-25T16:12:03.383Z,73.40
2023-01-25T16:17:03.149Z,74.93
2023-01-25T16:19:32.305Z,71.38
2023-01-25T16:22:01.510Z,55.22
2023-01-25T16:24:32.064Z,69.25
2023-01-25T16:27:02.629Z,71.75
2023-01-25T16:29:31.809Z,76.45
2023-01-25T16:32:01.092Z,73.40
2023-01-25T16:34:29.911Z,81.93
2023-01-25T16:36:59.979Z,75.72
2023-01-25T16:39:29.283Z,79.57
2023-01-25T16:42:00.233Z,76.60
2023-01-25T16:44:29.335Z,79.95
2023-01-25T16:46:58.554Z,73.72
2023-01-25T16:49:30.631Z,72.30
2023-01-25T16:52:00.222Z,73.30
2023-01-25T16:54:31.748Z,70.65
2023-01-25T16:57:15.032Z,59.65
2023-01-25T16:59:48.605Z,65.07
2023-01-25T17:02:17.656Z,61.55
2023-01-25T17:04:46.345Z,72.05
2023-01-25T17:07:15.527Z,63.67
2023-01-25T17:09:44.645Z,65.35
2023-01-25T17:12:15.235Z,68.88
2023-01-25T17:14:44.354Z,63.92
2023-01-25T17:17:13.601Z,67.45
2023-01-25T17:19:42.663Z,64.20
2023-01-25T17:22:11.891Z,67.65
2023-01-25T17:24:41.468Z,75.15
2023-01-25T17:27:10.652Z,72.22
2023-01-25T17:29:41.289Z,66.00
2023-01-25T17:32:10.656Z,67.63
2023-01-25T17:34:39.357Z,66.45
2023-01-25T17:37:08.421Z,71.82
2023-01-25T17:39:37.499Z,73.40
2023-01-25T17:42:26.222Z,71.68
2023-01-25T17:44:56.897Z,76.97
2023-01-25T17:47:26.013Z,74.85
2023-01-25T17:49:54.688Z,82.85
2023-01-25T17:52:23.771Z,70.63
2023-01-25T17:54:52.857Z,75.68
2023-01-25T17:57:24.188Z,71.00
2023-01-25T17:59:53.252Z,77.65
2023-01-25T18:02:23.788Z,72.47
2023-01-25T18:07:21.462Z,76.20
2023-01-25T18:09:50.514Z,60.83
2023-01-25T18:12:20.730Z,75.10
2023-01-25T18:14:50.127Z,75.55
2023-01-25T18:17:19.336Z,60.45
2023-01-25T18:19:49.716Z,77.65
2023-01-25T18:22:19.002Z,76.32
2023-01-25T18:24:48.626Z,86.90
2023-01-25T18:27:20.639Z,81.63
2023-01-25T18:29:55.371Z,76.43
2023-01-25T18:32:24.545Z,80.40
2023-01-25T18:34:54.663Z,87.22
2023-01-25T18:37:25.848Z,88.45
2023-01-25T18:39:56.536Z,77.32
2023-01-25T18:42:27.390Z,84.50
2023-01-25T18:44:56.595Z,82.45
2023-01-25T18:47:28.136Z,85.10
2023-01-25T18:49:58.609Z,79.88
2023-01-25T18:52:27.633Z,89.40
2023-01-25T18:54:56.951Z,77.72
2023-01-25T18:57:26.165Z,78.93
2023-01-25T18:59:55.601Z,70.20
2023-01-25T19:02:24.962Z,78.15
2023-01-25T19:04:53.853Z,85.13
2023-01-25T19:07:24.430Z,82.70
2023-01-25T19:09:53.525Z,76.25
2023-01-25T19:12:22.624Z,80.22
2023-01-25T19:14:51.975Z,76.47
2023-01-25T19:17:21.120Z,53.77
2023-01-25T19:19:49.858Z,76.30
2023-01-25T19:22:18.992Z,65.25
2023-01-25T19:24:49.683Z,52.70
2023-01-25T19:27:18.673Z,68.07
2023-01-25T19:29:47.724Z,75.80
2023-01-25T19:32:16.822Z,69.47
2023-01-25T19:34:45.608Z,74.43
2023-01-25T19:37:14.635Z,76.20
2023-01-25T19:39:43.729Z,75.47
2023-01-25T19:42:18.530Z,76.82
2023-01-25T19:44:48.616Z,75.72
2023-01-25T19:47:17.754Z,75.18
2023-01-25T19:49:46.500Z,68.32
2023-01-25T19:52:15.661Z,64.10
2023-01-25T19:54:44.791Z,70.47
2023-01-25T19:57:18.495Z,74.45
2023-01-25T19:59:47.975Z,64.60
2023-01-25T20:02:16.968Z,73.20
2023-01-25T20:04:45.677Z,66.90
2023-01-25T20:07:14.963Z,77.40
2023-01-25T20:09:44.060Z,67.47
2023-01-25T20:12:17.715Z,61.83
2023-01-25T20:14:46.876Z,62.80
2023-01-25T20:17:15.886Z,75.97
2023-01-25T20:19:44.562Z,41.95
2023-01-25T20:22:13.926Z,71.85
2023-01-25T20:24:43.007Z,64.00
2023-01-25T20:27:12.059Z,65.15
2023-01-25T20:29:42.657Z,51.78
2023-01-25T20:32:26.649Z,61.65
2023-01-25T20:35:03.626Z,65.78
2023-01-25T20:37:33.140Z,59.00
2023-01-25T20:40:02.244Z,67.53
2023-01-25T20:42:31.222Z,62.45
2023-01-25T20:45:01.665Z,69.15
2023-01-25T20:47:30.753Z,68.07
2023-01-25T20:49:59.890Z,71.28
2023-01-25T20:52:29.281Z,64.13
2023-01-25T20:54:58.398Z,66.72
2023-01-25T20:57:29.899Z,71.78
2023-01-25T20:59:59.019Z,74.07
2023-01-25T21:02:29.675Z,72.00
2023-01-25T21:04:58.451Z,74.53
2023-01-25T21:07:27.501Z,73.95
2023-01-25T21:09:56.742Z,74.35
2023-01-25T21:12:25.754Z,73.88
2023-01-25T21:14:54.966Z,71.00
2023-01-25T21:17:24.148Z,76.20
2023-01-25T21:19:54.494Z,75.82
2023-01-25T21:22:23.805Z,77.93
2023-01-25T21:24:53.089Z,87.43
2023-01-25T21:27:23.047Z,80.25
2023-01-25T21:29:52.152Z,82.78
2023-01-25T21:32:21.411Z,83.32
2023-01-25T21:34:50.128Z,84.35
2023-01-25T21:37:22.541Z,84.68
2023-01-25T21:39:51.662Z,80.10
2023-01-25T21:42:20.882Z,86.07
2023-01-25T21:45:07.398Z,90.35
2023-01-25T21:47:37.027Z,85.93
2023-01-25T21:50:23.058Z,67.25
2023-01-25T21:52:53.211Z,82.35
2023-01-25T21:55:22.720Z,83.10
2023-01-25T21:57:52.517Z,76.50
2023-01-25T22:00:22.357Z,78.38
2023-01-25T22:02:52.424Z,79.13
2023-01-25T22:05:21.478Z,80.70
2023-01-25T22:07:50.356Z,74.47
2023-01-25T22:10:21.102Z,73.97
2023-01-25T22:12:51.759Z,74.82
2023-01-25T22:15:20.973Z,74.47
2023-01-25T22:17:50.219Z,68.00
2023-01-25T22:20:19.513Z,73.15
2023-01-25T22:22:48.986Z,76.60
2023-01-25T22:25:18.401Z,71.25
2023-01-25T22:27:53.924Z,74.10
2023-01-25T22:30:23.033Z,74.05
2023-01-25T22:32:52.249Z,72.32
2023-01-25T22:35:21.289Z,73.70
2023-01-25T22:37:49.972Z,73.53
2023-01-25T22:40:19.219Z,73.07
2023-01-25T22:42:49.787Z,74.07
2023-01-25T22:45:18.773Z,72.40
2023-01-25T22:47:49.239Z,70.75
2023-01-25T22:50:18.666Z,72.72
2023-01-25T22:52:49.036Z,66.90
2023-01-25T22:55:18.114Z,68.07
2023-01-25T22:57:47.227Z,64.90
2023-01-25T23:00:19.198Z,73.68
2023-01-25T23:02:48.537Z,67.30
2023-01-25T23:05:17.657Z,66.30
2023-01-25T23:07:46.438Z,73.63
2023-01-25T23:10:17.964Z,71.70
2023-01-25T23:15:17.503Z,70.22
2023-01-25T23:18:03.851Z,70.85
2023-01-25T23:20:33.133Z,73.85
2023-01-25T23:23:02.295Z,69.57
2023-01-25T23:25:31.335Z,75.90
2023-01-25T23:28:00.454Z,74.50
2023-01-25T23:30:31.161Z,75.03
2023-01-25T23:33:00.156Z,66.13
2023-01-25T23:35:29.350Z,74.40
2023-01-25T23:37:58.352Z,61.22
2023-01-25T23:40:27.142Z,74.20
2023-01-25T23:42:57.794Z,60.90
2023-01-25T23:45:27.068Z,70.93
2023-01-25T23:47:57.770Z,54.45
2023-01-25T23:50:26.892Z,72.25
2023-01-25T23:52:55.531Z,74.95
2023-01-25T23:55:24.610Z,69.43
2023-01-25T23:57:55.190Z,73.05
